Time;durP1;ratioP1;P1;durP2;ratioP2;P2;SDS_P1;SDS_P2;PMS_P1;PMS_P2;Temp;Humidity;BMP_temperature;BMP_pressure;BME280_temperature;BME280_humidity;BME280_pressure;Samples;Min_cycle;Max_cycle;Signal;HPM_P1;HPM_P2
2022/12/29 05:07:53;;;;;;;3.85;1.25;;;11.40;99.90;;;;;;4955780;29;20505;-64
2022/12/29 05:10:18;;;;;;;1.23;0.70;;;11.40;99.90;;;;;;4957214;29;20174;-64
2022/12/29 05:12:44;;;;;;;0.90;0.90;;;11.40;99.90;;;;;;4956896;29;20641;-66
2022/12/29 05:15:11;;;;;;;0.73;0.73;;;11.40;99.90;;;;;;4971779;28;20203;-62
2022/12/29 05:17:37;;;;;;;0.93;0.80;;;11.40;99.90;;;;;;4976497;28;20169;-63
2022/12/29 05:20:04;;;;;;;0.93;0.90;;;11.40;99.90;;;;;;4976196;28;20684;-62
2022/12/29 05:22:30;;;;;;;0.93;0.93;;;11.40;99.90;;;;;;4972094;28;20594;-63
2022/12/29 05:24:56;;;;;;;1.30;1.00;;;11.40;99.90;;;;;;4956277;28;20242;-62
2022/12/29 05:27:21;;;;;;;1.03;1.00;;;11.40;99.90;;;;;;4956925;29;20210;-63
2022/12/29 05:29:47;;;;;;;1.27;1.20;;;11.30;99.90;;;;;;4957004;29;20169;-62
2022/12/29 05:32:13;;;;;;;0.93;0.93;;;11.40;99.90;;;;;;4956915;29;20165;-63
2022/12/29 05:34:38;;;;;;;0.97;0.80;;;11.40;99.90;;;;;;4955164;29;20278;-62
2022/12/29 05:37:04;;;;;;;1.07;0.93;;;11.50;99.90;;;;;;4956654;29;20185;-63
2022/12/29 05:39:30;;;;;;;1.50;1.07;;;11.50;99.90;;;;;;4956657;29;20180;-62
2022/12/29 05:41:55;;;;;;;2.77;0.90;;;11.60;99.90;;;;;;4956668;29;20528;-63
2022/12/29 05:44:21;;;;;;;0.93;0.93;;;11.60;99.90;;;;;;4956151;29;20719;-64
2022/12/29 05:46:46;;;;;;;0.83;0.83;;;11.60;99.90;;;;;;4956579;29;20513;-62
2022/12/29 05:49:12;;;;;;;0.73;0.73;;;11.60;99.90;;;;;;4956413;29;20172;-63
2022/12/29 05:51:38;;;;;;;0.90;0.90;;;11.50;99.90;;;;;;4956291;29;20165;-63
2022/12/29 05:54:03;;;;;;;1.00;1.00;;;11.60;99.90;;;;;;4955972;29;20269;-64
2022/12/29 05:56:29;;;;;;;0.70;0.70;;;11.60;99.90;;;;;;4956445;29;20581;-62
2022/12/29 05:58:54;;;;;;;1.17;1.10;;;11.60;99.90;;;;;;4959463;28;20172;-64
2022/12/29 06:01:20;;;;;;;0.93;0.77;;;11.60;99.90;;;;;;4975483;28;20268;-63
2022/12/29 06:03:46;;;;;;;0.80;0.80;;;11.60;99.90;;;;;;4975104;28;20512;-63
2022/12/29 06:06:11;;;;;;;1.17;1.13;;;11.70;99.90;;;;;;4975194;28;20244;-62
2022/12/29 06:08:37;;;;;;;0.50;0.50;;;11.70;99.90;;;;;;4975373;28;20177;-63
2022/12/29 06:11:02;;;;;;;0.70;0.70;;;11.80;99.90;;;;;;4975241;28;20179;-63
2022/12/29 06:13:28;;;;;;;0.97;0.90;;;11.80;99.90;;;;;;4957727;28;20168;-64
2022/12/29 06:15:54;;;;;;;0.73;0.67;;;11.90;99.90;;;;;;4973998;28;20259;-63
2022/12/29 06:18:19;;;;;;;0.90;0.90;;;11.90;99.90;;;;;;4975320;28;20415;-62
2022/12/29 06:20:45;;;;;;;1.17;0.97;;;12.00;99.90;;;;;;4975130;28;20277;-64
2022/12/29 06:23:13;;;;;;;1.07;1.00;;;12.00;99.90;;;;;;4974687;28;20258;-63
2022/12/29 06:25:38;;;;;;;6.83;1.50;;;12.00;99.90;;;;;;4975029;28;20468;-62
2022/12/29 06:28:05;;;;;;;1.07;0.97;;;12.00;99.90;;;;;;4975038;28;20950;-63
2022/12/29 06:30:31;;;;;;;0.90;0.90;;;12.00;99.90;;;;;;4974926;28;20468;-64
2022/12/29 06:32:57;;;;;;;0.80;0.77;;;12.00;99.90;;;;;;4974773;28;20178;-63
2022/12/29 06:35:23;;;;;;;1.10;1.10;;;12.10;99.90;;;;;;4974929;28;20434;-63
2022/12/29 06:37:49;;;;;;;0.83;0.83;;;12.10;99.90;;;;;;4974219;28;20477;-63
2022/12/29 06:40:14;;;;;;;0.60;0.60;;;12.10;99.90;;;;;;4975169;28;20235;-63
2022/12/29 06:42:40;;;;;;;1.10;1.00;;;12.10;99.90;;;;;;4974509;28;20260;-63
2022/12/29 06:45:07;;;;;;;0.90;0.87;;;12.10;99.90;;;;;;4974637;28;20205;-62
2022/12/29 06:47:33;;;;;;;3.53;1.27;;;12.20;99.90;;;;;;4974671;28;20173;-63
2022/12/29 06:49:58;;;;;;;1.40;1.30;;;12.10;99.90;;;;;;4974547;28;20421;-64
2022/12/29 06:52:24;;;;;;;1.73;1.27;;;12.10;99.90;;;;;;4974597;28;21186;-63
2022/12/29 06:54:50;;;;;;;1.07;0.93;;;12.00;99.90;;;;;;4974090;28;20201;-63
2022/12/29 06:57:15;;;;;;;2.00;0.87;;;12.00;99.90;;;;;;4957196;28;20629;-63
2022/12/29 06:59:41;;;;;;;3.70;1.17;;;12.00;99.90;;;;;;4965201;28;20251;-63
2022/12/29 07:02:06;;;;;;;1.27;1.13;;;12.00;99.90;;;;;;4955429;29;20177;-63
2022/12/29 07:04:32;;;;;;;0.77;0.77;;;11.90;99.90;;;;;;4954565;29;20221;-63
2022/12/29 07:06:58;;;;;;;1.30;0.60;;;11.90;99.90;;;;;;4955066;28;20198;-63
2022/12/29 07:09:23;;;;;;;1.43;0.70;;;11.90;99.90;;;;;;4955335;29;20264;-63
2022/12/29 07:11:49;;;;;;;0.70;0.70;;;11.90;99.90;;;;;;4955335;29;20171;-63
2022/12/29 07:14:14;;;;;;;0.73;0.73;;;11.90;99.90;;;;;;4959470;28;20204;-64
2022/12/29 07:16:40;;;;;;;0.93;0.93;;;11.90;99.90;;;;;;4967594;28;20178;-63
2022/12/29 07:19:05;;;;;;;0.60;0.60;;;11.90;99.90;;;;;;4956109;28;20305;-63
2022/12/29 07:21:31;;;;;;;0.73;0.70;;;12.00;99.90;;;;;;4954904;29;20170;-64
2022/12/29 07:23:56;;;;;;;0.80;0.70;;;12.00;99.90;;;;;;4957644;28;20213;-62
2022/12/29 07:26:22;;;;;;;2.20;1.07;;;12.10;99.90;;;;;;4974284;28;20309;-64
2022/12/29 07:28:48;;;;;;;0.93;0.83;;;12.10;99.90;;;;;;4960222;28;20186;-64
2022/12/29 07:31:16;;;;;;;2.17;1.97;;;12.10;99.90;;;;;;4955134;29;20172;-64
2022/12/29 07:33:43;;;;;;;0.70;0.70;;;12.10;99.90;;;;;;4954555;29;20275;-65
2022/12/29 07:36:09;;;;;;;0.93;0.93;;;12.20;99.90;;;;;;4954902;29;20923;-64
2022/12/29 07:38:34;;;;;;;0.70;0.70;;;12.20;99.90;;;;;;4954925;29;20440;-64
2022/12/29 07:41:00;;;;;;;0.63;0.63;;;12.20;99.90;;;;;;4968777;28;20432;-63
2022/12/29 07:43:26;;;;;;;0.80;0.80;;;12.30;99.90;;;;;;4973472;28;20192;-62
2022/12/29 07:45:51;;;;;;;0.60;0.60;;;12.30;99.90;;;;;;4974080;28;20206;-65
2022/12/29 07:48:17;;;;;;;0.70;0.67;;;12.30;99.90;;;;;;4967136;28;20182;-63
2022/12/29 07:50:42;;;;;;;0.80;0.80;;;12.30;99.90;;;;;;4959936;28;20183;-64
2022/12/29 07:53:08;;;;;;;0.70;0.70;;;12.40;99.90;;;;;;4958098;29;20253;-64
2022/12/29 07:55:33;;;;;;;3.40;0.80;;;12.40;99.90;;;;;;4976087;28;20648;-66
2022/12/29 07:57:59;;;;;;;2.10;1.03;;;12.40;99.90;;;;;;4966148;28;20178;-66
2022/12/29 08:00:25;;;;;;;1.07;1.00;;;12.50;99.90;;;;;;4975540;28;20191;-63
2022/12/29 08:02:50;;;;;;;1.00;1.00;;;12.50;99.90;;;;;;4976565;28;20186;-63
2022/12/29 08:05:16;;;;;;;0.67;0.67;;;12.60;99.90;;;;;;4977241;28;20218;-63
2022/12/29 08:07:46;;;;;;;1.17;1.07;;;12.60;99.90;;;;;;4976394;28;20216;-64
2022/12/29 08:10:12;;;;;;;0.90;0.90;;;12.70;99.90;;;;;;4976000;28;20183;-63
2022/12/29 08:12:39;;;;;;;1.20;0.97;;;12.70;99.90;;;;;;4959059;28;20419;-63
2022/12/29 08:15:06;;;;;;;0.60;0.60;;;12.80;99.90;;;;;;4962729;28;20593;-63
2022/12/29 08:17:32;;;;;;;1.03;0.90;;;12.80;99.90;;;;;;4959900;28;20791;-64
2022/12/29 08:19:58;;;;;;;0.93;0.93;;;12.90;99.90;;;;;;4977253;28;20909;-62
2022/12/29 08:22:23;;;;;;;4.47;1.13;;;12.90;99.90;;;;;;4977129;28;20435;-63
2022/12/29 08:24:49;;;;;;;3.60;0.90;;;13.00;99.90;;;;;;4976774;28;20203;-65
2022/12/29 08:27:15;;;;;;;1.53;0.80;;;13.00;99.90;;;;;;4976958;28;20258;-65
2022/12/29 08:29:40;;;;;;;1.00;1.00;;;13.00;99.90;;;;;;4976837;28;20179;-63
2022/12/29 08:32:06;;;;;;;0.67;0.63;;;13.00;99.90;;;;;;4977029;28;20171;-65
2022/12/29 08:34:32;;;;;;;1.07;1.00;;;13.00;99.90;;;;;;4976549;28;20604;-65
2022/12/29 08:36:57;;;;;;;1.70;1.60;;;13.00;99.90;;;;;;4976995;28;20175;-65
2022/12/29 08:39:23;;;;;;;1.40;1.30;;;13.00;99.90;;;;;;4977063;28;20480;-64
2022/12/29 08:41:49;;;;;;;1.23;1.13;;;13.10;99.90;;;;;;4977063;28;20220;-64
2022/12/29 08:44:14;;;;;;;0.87;0.87;;;13.10;99.90;;;;;;4976168;28;20214;-63
2022/12/29 08:46:40;;;;;;;2.53;0.90;;;13.10;99.90;;;;;;4975867;28;20234;-62
2022/12/29 08:49:06;;;;;;;2.87;2.23;;;13.20;99.90;;;;;;4976842;28;20223;-63
2022/12/29 08:51:31;;;;;;;1.30;1.27;;;13.20;99.90;;;;;;4977081;28;20175;-64
2022/12/29 08:53:57;;;;;;;3.10;2.57;;;13.30;99.90;;;;;;4971996;28;20191;-64
2022/12/29 08:56:23;;;;;;;0.90;0.90;;;13.30;99.90;;;;;;4976759;28;20194;-64
2022/12/29 08:58:50;;;;;;;1.90;1.50;;;13.30;99.90;;;;;;4976731;28;20174;-63
2022/12/29 09:01:16;;;;;;;3.17;2.67;;;13.30;99.90;;;;;;4975936;28;21130;-64
2022/12/29 09:03:42;;;;;;;0.63;0.63;;;13.30;99.90;;;;;;4976139;28;20508;-64
2022/12/29 09:06:07;;;;;;;1.57;1.20;;;13.30;99.90;;;;;;4958486;28;20209;-64
2022/12/29 09:08:33;;;;;;;1.20;1.10;;;13.30;99.90;;;;;;4976221;28;20179;-63
2022/12/29 09:11:19;;;;;;;1.03;1.03;;;13.30;99.90;;;;;;4975352;28;20227;-63
2022/12/29 09:13:46;;;;;;;0.97;0.83;;;13.40;99.90;;;;;;4966508;28;20304;-63
2022/12/29 09:16:11;;;;;;;0.63;0.63;;;13.30;99.90;;;;;;4959078;28;20954;-63
2022/12/29 09:18:37;;;;;;;1.10;0.93;;;13.30;99.90;;;;;;4976376;28;20516;-62
2022/12/29 09:21:05;;;;;;;1.07;0.73;;;13.40;99.90;;;;;;4976476;28;20465;-63
2022/12/29 09:23:31;;;;;;;1.00;1.00;;;13.40;99.90;;;;;;4975880;28;20801;-64
2022/12/29 09:25:57;;;;;;;3.50;0.90;;;13.40;99.90;;;;;;4976443;28;20800;-63
2022/12/29 09:28:23;;;;;;;0.83;0.83;;;13.40;99.90;;;;;;4976244;28;20419;-64
2022/12/29 09:30:49;;;;;;;0.97;0.87;;;13.50;99.90;;;;;;4958962;28;20656;-62
2022/12/29 09:33:15;;;;;;;1.10;1.10;;;13.50;99.90;;;;;;4969295;28;20786;-63
2022/12/29 09:35:45;;;;;;;1.30;1.20;;;13.50;99.90;;;;;;4956873;29;20446;-64
2022/12/29 09:38:12;;;;;;;1.37;1.27;;;13.50;99.90;;;;;;4953166;28;20470;-67
2022/12/29 09:40:38;;;;;;;1.77;0.90;;;13.50;99.90;;;;;;4967478;28;20769;-67
2022/12/29 09:43:36;;;;;;;0.87;0.80;;;13.60;99.90;;;;;;4971261;28;20431;-67
2022/12/29 09:46:10;;;;;;;0.97;0.93;;;13.60;99.90;;;;;;4975819;28;20477;-67
2022/12/29 09:48:41;;;;;;;2.43;1.10;;;13.70;99.90;;;;;;4975488;28;20430;-68
2022/12/29 09:51:18;;;;;;;1.93;1.37;;;13.70;99.90;;;;;;4975799;28;20407;-67
2022/12/29 09:53:58;;;;;;;1.13;1.13;;;13.70;99.90;;;;;;4957992;28;20439;-68
2022/12/29 09:56:26;;;;;;;1.00;1.00;;;13.80;99.90;;;;;;4975448;28;20426;-67
2022/12/29 09:59:07;;;;;;;3.73;1.60;;;13.90;99.90;;;;;;4975469;28;20418;-67
2022/12/29 10:01:36;;;;;;;4.43;1.27;;;14.00;99.90;;;;;;4958305;28;20493;-66
2022/12/29 10:04:04;;;;;;;1.07;0.97;;;14.00;99.90;;;;;;4975070;28;20462;-68
2022/12/29 10:06:36;;;;;;;1.40;1.30;;;14.10;99.90;;;;;;4975311;28;20499;-68
2022/12/29 10:09:15;;;;;;;1.07;1.00;;;14.20;99.90;;;;;;4975476;28;20407;-68
2022/12/29 10:11:46;;;;;;;2.67;0.83;;;14.30;99.90;;;;;;4974245;28;20451;-67
2022/12/29 10:14:36;;;;;;;8.00;1.13;;;14.30;99.70;;;;;;4974613;28;20427;-68
2022/12/29 10:17:02;;;;;;;1.13;0.97;;;14.30;99.90;;;;;;4975507;28;20400;-66
2022/12/29 10:19:40;;;;;;;0.80;0.80;;;14.10;99.60;;;;;;4975436;28;20414;-68
2022/12/29 10:22:17;;;;;;;0.80;0.80;;;14.10;99.90;;;;;;4975302;28;20168;-67
2022/12/29 10:24:46;;;;;;;1.17;1.10;;;14.00;99.90;;;;;;4974441;28;20463;-68
2022/12/29 10:27:15;;;;;;;1.57;1.10;;;13.90;99.90;;;;;;4975208;28;20450;-68
2022/12/29 10:29:47;;;;;;;2.23;1.10;;;13.90;99.90;;;;;;4975114;28;20407;-67
2022/12/29 10:32:38;;;;;;;7.23;1.00;;;13.90;99.90;;;;;;4957668;28;20434;-67
2022/12/29 10:35:29;;;;;;;1.47;1.37;;;13.90;99.90;;;;;;4974721;28;20431;-67
2022/12/29 10:37:58;;;;;;;1.10;1.00;;;13.90;99.90;;;;;;4974991;28;20868;-68
2022/12/29 10:40:32;;;;;;;1.23;1.13;;;13.80;99.90;;;;;;4974764;28;20478;-66
2022/12/29 10:42:58;;;;;;;1.03;0.80;;;13.80;99.90;;;;;;4974759;28;20386;-67
2022/12/29 10:45:29;;;;;;;3.93;1.80;;;13.90;99.90;;;;;;4974630;28;20452;-67
2022/12/29 10:47:59;;;;;;;1.53;1.30;;;13.90;99.90;;;;;;4974851;28;20721;-70
2022/12/29 10:50:27;;;;;;;1.57;1.47;;;14.00;99.90;;;;;;4974999;28;20430;-69
2022/12/29 10:52:54;;;;;;;2.10;1.07;;;14.00;99.90;;;;;;4974164;28;20484;-68
2022/12/29 10:55:27;;;;;;;1.07;0.97;;;14.10;99.90;;;;;;4974774;28;20427;-68
2022/12/29 10:57:55;;;;;;;1.30;1.20;;;14.10;99.90;;;;;;4974726;28;20549;-68
2022/12/29 11:00:21;;;;;;;2.80;2.17;;;14.20;99.90;;;;;;4957348;28;20407;-67
2022/12/29 11:03:02;;;;;;;2.53;2.23;;;14.20;99.90;;;;;;4974257;28;20466;-66
2022/12/29 11:06:19;;;;;;;1.70;1.60;;;14.20;99.90;;;;;;4974546;28;20458;-69
2022/12/29 11:08:58;;;;;;;1.40;1.30;;;14.40;99.90;;;;;;4962800;28;20468;-66
2022/12/29 11:11:27;;;;;;;2.00;1.50;;;14.70;99.90;;;;;;4974608;28;20407;-68
2022/12/29 11:14:10;;;;;;;2.80;1.23;;;14.80;99.90;;;;;;4974104;28;20486;-68
2022/12/29 11:16:35;;;;;;;2.30;1.57;;;14.80;99.90;;;;;;4974142;28;20432;-68
2022/12/29 11:19:02;;;;;;;1.20;1.10;;;14.90;99.90;;;;;;4974293;28;20719;-68
2022/12/29 11:21:34;;;;;;;1.13;0.90;;;14.90;99.90;;;;;;4974427;28;20203;-67
2022/12/29 11:24:05;;;;;;;1.10;1.10;;;14.90;99.90;;;;;;4973679;28;20427;-68
2022/12/29 11:26:32;;;;;;;1.03;0.90;;;14.90;99.90;;;;;;4974492;28;20483;-68
2022/12/29 11:29:16;;;;;;;2.57;0.93;;;14.80;99.90;;;;;;4974140;28;20405;-69
2022/12/29 11:31:51;;;;;;;0.83;0.80;;;14.90;99.90;;;;;;4974308;28;20920;-67
2022/12/29 11:34:23;;;;;;;1.47;1.20;;;14.80;99.90;;;;;;4956622;28;20925;-68
2022/12/29 11:36:50;;;;;;;1.07;1.00;;;14.80;99.90;;;;;;4974459;28;20893;-68
2022/12/29 11:39:34;;;;;;;1.17;1.17;;;14.80;99.90;;;;;;4974322;28;20407;-70
2022/12/29 11:42:02;;;;;;;1.50;1.40;;;14.70;99.90;;;;;;4974334;28;20415;-67
2022/12/29 11:44:35;;;;;;;5.20;1.17;;;14.80;99.90;;;;;;4973450;28;20963;-68
2022/12/29 11:47:01;;;;;;;1.83;0.90;;;14.80;99.90;;;;;;4974393;28;20823;-69
2022/12/29 11:49:27;;;;;;;1.37;0.83;;;14.80;99.90;;;;;;4974335;28;20415;-71
2022/12/29 11:51:56;;;;;;;1.60;0.90;;;14.80;99.90;;;;;;4974402;28;20404;-66
2022/12/29 11:54:33;;;;;;;1.30;1.10;;;14.80;99.90;;;;;;4973881;28;20248;-68
2022/12/29 11:57:11;;;;;;;1.33;1.23;;;14.80;99.90;;;;;;4974144;28;20392;-69
2022/12/29 11:59:41;;;;;;;1.37;0.87;;;14.80;99.90;;;;;;4973923;28;20478;-69
2022/12/29 12:02:26;;;;;;;0.80;0.80;;;14.70;99.90;;;;;;4974529;28;20407;-68
2022/12/29 12:05:01;;;;;;;1.30;1.20;;;14.60;99.90;;;;;;4973571;28;20487;-69
2022/12/29 12:07:42;;;;;;;1.70;1.63;;;14.40;99.90;;;;;;4973836;28;20462;-68
2022/12/29 12:10:19;;;;;;;1.23;1.13;;;14.20;99.90;;;;;;4973912;28;20399;-68
2022/12/29 12:12:55;;;;;;;1.50;1.40;;;14.00;99.90;;;;;;4973424;28;20430;-69
2022/12/29 12:15:39;;;;;;;2.47;1.93;;;14.00;99.90;;;;;;4973991;28;20517;-68
2022/12/29 12:18:18;;;;;;;1.77;1.67;;;13.90;99.90;;;;;;4956807;28;20422;-67
2022/12/29 12:20:50;;;;;;;1.93;1.23;;;13.90;99.90;;;;;;4974100;28;20943;-68
2022/12/29 12:23:21;;;;;;;1.77;1.67;;;13.90;99.90;;;;;;4973380;28;20418;-68
2022/12/29 12:26:10;;;;;;;1.37;1.17;;;13.90;99.90;;;;;;4973697;28;20454;-67
2022/12/29 12:28:47;;;;;;;2.30;1.23;;;13.80;99.90;;;;;;4973827;28;20411;-66
2022/12/29 12:31:35;;;;;;;0.97;0.97;;;13.80;99.90;;;;;;4973980;28;20403;-67
2022/12/29 12:34:06;;;;;;;2.93;1.63;;;13.80;99.90;;;;;;4973722;28;20423;-68
2022/12/29 12:37:00;;;;;;;1.47;1.37;;;13.80;99.90;;;;;;4976748;28;20900;-68
2022/12/29 12:39:56;;;;;;;1.30;1.20;;;13.80;99.90;;;;;;4960061;28;20418;-67
2022/12/29 12:42:35;;;;;;;1.37;1.27;;;13.80;99.90;;;;;;4958415;29;20466;-69
2022/12/29 12:45:44;;;;;;;1.27;1.17;;;13.80;99.90;;;;;;4957815;29;20460;-69
2022/12/29 12:48:22;;;;;;;1.70;1.40;;;13.90;99.90;;;;;;4957875;29;20399;-68
2022/12/29 12:51:20;;;;;;;3.50;1.40;;;13.90;99.90;;;;;;4957931;29;20898;-66
2022/12/29 12:54:04;;;;;;;0.77;0.77;;;13.90;99.90;;;;;;4957263;29;20764;-68
2022/12/29 12:56:47;;;;;;;1.97;1.10;;;13.90;99.90;;;;;;4975401;28;20415;-67
2022/12/29 12:59:34;;;;;;;0.93;0.93;;;13.90;99.90;;;;;;4977280;28;20403;-69
2022/12/29 13:02:30;;;;;;;1.93;1.30;;;13.90;99.90;;;;;;4976983;28;20775;-67
2022/12/29 13:05:20;;;;;;;1.90;1.23;;;13.90;99.90;;;;;;4976525;28;20455;-69
2022/12/29 13:08:03;;;;;;;0.80;0.80;;;13.80;99.90;;;;;;4976648;28;20441;-68
2022/12/29 13:11:00;;;;;;;1.50;1.30;;;13.80;99.90;;;;;;4957391;29;20506;-68
2022/12/29 13:14:07;;;;;;;4.17;1.57;;;13.80;99.90;;;;;;4962569;28;20511;-67
2022/12/29 13:16:48;;;;;;;1.00;1.00;;;13.90;99.90;;;;;;4977035;28;20410;-67
2022/12/29 13:19:41;;;;;;;2.53;1.87;;;13.90;99.90;;;;;;4991729;28;20968;-67
2022/12/29 13:22:15;;;;;;;1.50;1.47;;;13.80;99.90;;;;;;4959150;28;20422;-68
2022/12/29 13:24:55;;;;;;;1.30;1.30;;;13.80;99.90;;;;;;4975809;28;20455;-68
2022/12/29 13:27:55;;;;;;;1.20;1.03;;;13.80;99.90;;;;;;4976677;28;20422;-70
2022/12/29 13:30:23;;;;;;;1.13;1.13;;;13.70;99.90;;;;;;4976434;28;20403;-68
2022/12/29 13:33:15;;;;;;;1.03;0.93;;;13.80;99.90;;;;;;4958567;28;20410;-68
2022/12/29 13:36:05;;;;;;;1.73;1.13;;;13.70;99.90;;;;;;4976405;28;20999;-67
2022/12/29 13:38:42;;;;;;;3.00;1.10;;;13.70;99.90;;;;;;4976108;28;20430;-67
2022/12/29 13:41:25;;;;;;;1.20;1.10;;;13.60;99.90;;;;;;4958316;28;20434;-69
2022/12/29 13:43:51;;;;;;;3.60;1.70;;;13.50;99.90;;;;;;4975784;28;20463;-69
2022/12/29 13:46:31;;;;;;;1.70;1.30;;;13.50;99.90;;;;;;4975792;28;20782;-68
2022/12/29 13:49:08;;;;;;;1.30;1.20;;;13.40;99.90;;;;;;4975998;28;20407;-69
2022/12/29 13:51:35;;;;;;;2.60;1.17;;;13.40;99.90;;;;;;4976077;28;20469;-68
2022/12/29 13:54:18;;;;;;;0.93;0.83;;;13.30;99.90;;;;;;4958024;28;20575;-68
2022/12/29 13:56:57;;;;;;;0.93;0.93;;;13.40;99.90;;;;;;4975536;28;20408;-68
2022/12/29 13:59:40;;;;;;;1.20;1.10;;;13.30;99.90;;;;;;4975491;28;20735;-67
2022/12/29 14:02:36;;;;;;;2.20;1.40;;;13.30;99.90;;;;;;4975301;28;20434;-67
2022/12/29 14:05:22;;;;;;;1.50;1.40;;;13.30;99.90;;;;;;4975280;28;20565;-66
2022/12/29 14:07:56;;;;;;;2.07;1.70;;;13.40;99.90;;;;;;4974992;28;20433;-65
2022/12/29 14:10:35;;;;;;;1.33;1.23;;;13.30;99.90;;;;;;4975890;28;20429;-65
2022/12/29 14:13:09;;;;;;;1.87;1.40;;;13.30;99.90;;;;;;4975279;28;20410;-65
2022/12/29 14:15:40;;;;;;;1.20;1.10;;;13.30;99.90;;;;;;4975261;28;20441;-65
2022/12/29 14:18:21;;;;;;;1.50;1.47;;;13.30;99.90;;;;;;4975492;28;20490;-66
2022/12/29 14:20:54;;;;;;;1.40;1.30;;;13.30;99.90;;;;;;4974910;28;20427;-66
2022/12/29 14:23:37;;;;;;;2.00;1.57;;;13.30;99.90;;;;;;4974001;28;20426;-67
2022/12/29 14:26:06;;;;;;;1.40;1.30;;;13.30;99.90;;;;;;4975016;28;20462;-66
2022/12/29 14:28:34;;;;;;;1.57;1.47;;;13.30;99.90;;;;;;4975678;28;20406;-65
2022/12/29 14:31:21;;;;;;;2.30;1.20;;;13.40;99.90;;;;;;4972556;28;20443;-64
2022/12/29 14:34:05;;;;;;;10.27;1.60;;;13.30;99.90;;;;;;4939529;29;21016;-66
2022/12/29 14:36:36;;;;;;;1.27;1.27;;;13.30;99.90;;;;;;4956995;28;20774;-66
2022/12/29 14:39:03;;;;;;;0.90;0.90;;;13.30;99.90;;;;;;4974651;28;20415;-66
2022/12/29 14:41:38;;;;;;;1.40;1.30;;;13.20;99.90;;;;;;4974888;28;20415;-65
2022/12/29 14:44:07;;;;;;;1.27;1.17;;;13.20;99.90;;;;;;4974752;28;20434;-67
2022/12/29 14:47:06;;;;;;;1.80;1.40;;;13.20;99.90;;;;;;4975005;28;20458;-64
2022/12/29 14:49:40;;;;;;;1.67;1.00;;;13.10;99.90;;;;;;4924200;28;20433;-65
2022/12/29 14:52:25;;;;;;;0.93;0.93;;;13.10;99.90;;;;;;4974727;28;20837;-65
2022/12/29 14:55:10;;;;;;;1.47;1.33;;;13.00;99.90;;;;;;4968819;28;20545;-65
2022/12/29 14:57:40;;;;;;;2.00;0.90;;;12.90;99.90;;;;;;4961846;28;20437;-66
2022/12/29 15:00:15;;;;;;;1.43;1.33;;;12.80;99.90;;;;;;4973805;28;20783;-66
2022/12/29 15:02:47;;;;;;;1.40;1.30;;;12.80;99.90;;;;;;4930130;29;20433;-65
2022/12/29 15:05:51;;;;;;;5.60;1.43;;;12.70;99.90;;;;;;4955472;29;20459;-66
2022/12/29 15:08:30;;;;;;;1.20;0.90;;;12.70;99.90;;;;;;4972439;28;20430;-65
2022/12/29 15:11:25;;;;;;;1.40;1.27;;;12.70;99.90;;;;;;4974471;28;20773;-65
2022/12/29 15:13:51;;;;;;;1.13;1.03;;;12.70;99.90;;;;;;4973836;28;20940;-64
2022/12/29 15:16:22;;;;;;;1.70;1.57;;;12.60;99.90;;;;;;4974619;28;20416;-63
2022/12/29 15:18:48;;;;;;;2.20;1.10;;;12.60;99.90;;;;;;4974492;28;20417;-64
2022/12/29 15:21:15;;;;;;;2.13;1.20;;;12.50;99.90;;;;;;4974190;28;20444;-65
2022/12/29 15:23:44;;;;;;;2.77;1.40;;;12.50;99.90;;;;;;4973716;28;20201;-65
2022/12/29 15:26:10;;;;;;;1.50;1.40;;;12.40;99.90;;;;;;4957403;28;20456;-64
2022/12/29 15:28:42;;;;;;;2.30;1.00;;;12.40;99.90;;;;;;4968566;28;20481;-63
2022/12/29 15:31:16;;;;;;;2.07;1.30;;;12.30;99.90;;;;;;4973628;28;20439;-64
2022/12/29 15:33:47;;;;;;;1.43;1.33;;;12.30;99.90;;;;;;4973801;28;20530;-63
2022/12/29 15:36:21;;;;;;;2.10;1.90;;;12.30;99.90;;;;;;4973743;28;20920;-67
2022/12/29 15:38:48;;;;;;;0.83;0.83;;;12.30;99.90;;;;;;4974125;28;20753;-65
2022/12/29 15:41:30;;;;;;;1.17;1.00;;;12.30;99.90;;;;;;4973870;28;20413;-64
2022/12/29 15:44:18;;;;;;;0.80;0.80;;;12.30;99.90;;;;;;4970479;28;20462;-66
2022/12/29 15:46:44;;;;;;;1.10;1.10;;;12.40;99.90;;;;;;4955851;28;20503;-65
2022/12/29 15:49:14;;;;;;;1.50;1.40;;;12.50;99.90;;;;;;4972235;28;20827;-65
2022/12/29 15:51:40;;;;;;;2.15;1.10;;;12.50;99.90;;;;;;4967790;28;20178;-65
2022/12/29 15:54:15;;;;;;;1.30;1.20;;;12.50;99.90;;;;;;4973338;28;20197;-65
2022/12/29 15:56:41;;;;;;;1.03;1.03;;;12.60;99.90;;;;;;4974081;28;20261;-66
2022/12/29 15:59:45;;;;;;;0.70;0.70;;;12.50;99.90;;;;;;4957025;28;20927;-65
2022/12/29 16:02:10;;;;;;;1.03;0.80;;;12.40;99.90;;;;;;4973717;28;20423;-65
2022/12/29 16:04:36;;;;;;;2.67;1.00;;;12.10;99.90;;;;;;4973368;28;20426;-65
2022/12/29 16:07:05;;;;;;;1.03;0.80;;;11.90;99.90;;;;;;4973666;28;20230;-64
2022/12/29 16:09:44;;;;;;;0.50;0.47;;;11.70;99.90;;;;;;4973809;28;20431;-65
2022/12/29 16:12:34;;;;;;;0.60;0.50;;;11.50;99.90;;;;;;4976538;28;20422;-64
2022/12/29 16:15:12;;;;;;;1.90;0.80;;;11.30;99.90;;;;;;4970388;28;20214;-64
2022/12/29 16:17:50;;;;;;;0.65;0.65;;;11.20;99.90;;;;;;4977727;28;20176;-65
2022/12/29 16:20:19;;;;;;;0.68;0.68;;;11.10;99.90;;;;;;4977469;28;20190;-65
2022/12/29 16:22:55;;;;;;;0.60;0.60;;;11.00;99.90;;;;;;4977074;28;20183;-65
2022/12/29 16:25:25;;;;;;;0.45;0.45;;;11.00;99.90;;;;;;4964581;28;20253;-64
2022/12/29 16:27:52;;;;;;;1.05;0.75;;;10.90;99.90;;;;;;4955510;28;20293;-65
2022/12/29 16:30:26;;;;;;;0.57;0.57;;;10.90;99.90;;;;;;4948481;28;20177;-64
2022/12/29 16:32:55;;;;;;;0.50;0.50;;;10.90;99.90;;;;;;4947596;28;20194;-64
2022/12/29 16:35:25;;;;;;;0.60;0.60;;;10.90;99.90;;;;;;4974941;28;20226;-64
2022/12/29 16:38:21;;;;;;;0.80;0.80;;;10.90;99.90;;;;;;4977448;28;20258;-64
2022/12/29 16:40:52;;;;;;;0.90;0.90;;;10.80;99.90;;;;;;4971051;28;20199;-65
2022/12/29 16:43:28;;;;;;;0.60;0.60;;;10.90;99.90;;;;;;4939223;29;20188;-65
2022/12/29 16:45:59;;;;;;;0.50;0.50;;;10.90;99.90;;;;;;4966948;28;20198;-65
2022/12/29 16:48:45;;;;;;;0.77;0.60;;;10.80;99.90;;;;;;4949260;29;20180;-65
2022/12/29 16:51:15;;;;;;;0.60;0.60;;;10.90;99.90;;;;;;4942822;28;20186;-62
2022/12/29 16:53:47;;;;;;;0.63;0.63;;;10.90;99.90;;;;;;4976241;28;20243;-62
2022/12/29 16:56:20;;;;;;;0.80;0.60;;;10.90;99.90;;;;;;4976534;28;20445;-64
2022/12/29 16:58:52;;;;;;;0.77;0.77;;;10.90;99.90;;;;;;4977091;28;20199;-65
2022/12/29 17:01:18;;;;;;;1.65;1.00;;;10.90;99.90;;;;;;4967997;28;20180;-63
2022/12/29 17:03:51;;;;;;;1.05;1.00;;;10.90;99.90;;;;;;4966355;28;20199;-64
2022/12/29 17:06:19;;;;;;;1.10;1.00;;;10.90;99.90;;;;;;4956933;29;20211;-63
2022/12/29 17:08:46;;;;;;;0.77;0.77;;;11.00;99.90;;;;;;4967498;28;20238;-63
2022/12/29 17:14:39;;;;;;;0.63;0.57;;;10.90;99.90;;;;;;4976208;28;20207;-62
2022/12/29 17:17:33;;;;;;;1.30;0.60;;;10.80;99.90;;;;;;4976093;28;20183;-62
2022/12/29 17:20:22;;;;;;;1.10;0.95;;;10.80;99.90;;;;;;4961450;28;20197;-64
2022/12/29 17:22:50;;;;;;;0.70;0.70;;;10.70;99.90;;;;;;4966363;28;20203;-64
2022/12/29 17:25:22;;;;;;;0.80;0.80;;;10.60;99.90;;;;;;4975903;28;20558;-63
2022/12/29 17:28:13;;;;;;;1.25;1.15;;;10.50;99.90;;;;;;4973130;28;20196;-63
2022/12/29 17:30:39;;;;;;;0.65;0.65;;;10.50;99.90;;;;;;4963075;28;20497;-64
2022/12/29 17:33:10;;;;;;;1.10;0.83;;;10.40;99.90;;;;;;4957905;28;20184;-62
2022/12/29 17:35:36;;;;;;;0.80;0.80;;;10.40;99.90;;;;;;4976164;28;20428;-64
2022/12/29 17:38:17;;;;;;;0.70;0.70;;;10.40;99.90;;;;;;4958713;28;20550;-65
2022/12/29 17:40:43;;;;;;;0.85;0.70;;;10.40;99.90;;;;;;4976240;28;20195;-63
2022/12/29 17:43:13;;;;;;;1.38;0.85;;;10.40;99.90;;;;;;4975800;28;20275;-65
2022/12/29 17:45:39;;;;;;;1.00;1.00;;;10.40;99.90;;;;;;4975766;28;20231;-65
2022/12/29 17:48:16;;;;;;;6.30;1.60;;;10.30;99.90;;;;;;4976232;28;20257;-65
2022/12/29 17:50:42;;;;;;;1.85;1.50;;;10.30;99.90;;;;;;4976249;28;20176;-64
2022/12/29 17:53:26;;;;;;;1.35;1.25;;;10.30;99.90;;;;;;4975746;28;20184;-64
2022/12/29 17:55:52;;;;;;;0.63;0.63;;;10.30;99.90;;;;;;4976108;28;20179;-64
2022/12/29 17:58:26;;;;;;;2.00;0.90;;;10.20;99.90;;;;;;4976087;28;20178;-64
2022/12/29 18:00:56;;;;;;;0.90;0.90;;;10.30;99.90;;;;;;4959088;28;20753;-65
2022/12/29 18:03:33;;;;;;;0.80;0.80;;;10.20;99.90;;;;;;4975323;28;20227;-65
2022/12/29 18:06:00;;;;;;;0.80;0.80;;;10.20;99.90;;;;;;4958235;28;20240;-64
2022/12/29 18:08:28;;;;;;;1.33;1.27;;;10.20;99.90;;;;;;4975626;28;20202;-65
2022/12/29 18:10:54;;;;;;;1.60;1.25;;;10.20;99.90;;;;;;4975559;28;20662;-64
2022/12/29 18:13:24;;;;;;;0.98;0.98;;;10.20;99.90;;;;;;4989764;28;20176;-64
2022/12/29 18:15:51;;;;;;;1.73;1.55;;;10.20;99.90;;;;;;4975678;28;20173;-65
2022/12/29 18:18:21;;;;;;;1.50;1.40;;;10.20;99.90;;;;;;4974655;28;20238;-65
2022/12/29 18:20:49;;;;;;;1.50;1.23;;;10.20;99.90;;;;;;4975743;28;20227;-62
2022/12/29 18:23:18;;;;;;;1.75;0.93;;;10.20;99.90;;;;;;4974769;28;20235;-63
2022/12/29 18:26:00;;;;;;;1.15;1.00;;;10.10;99.90;;;;;;4975337;28;20299;-64